sensor_id;sensor_type;location;lat;lon;timestamp;P1;durP1;ratioP1;P2;durP2;ratioP2
16854;SDS011;8543;54.522;18.550;2023-10-13T00:01:53;9.00;;;3.60;;
16854;SDS011;8543;54.522;18.550;2023-10-13T00:04:19;11.80;;;3.00;;
16854;SDS011;8543;54.522;18.550;2023-10-13T00:06:49;12.00;;;3.10;;
16854;SDS011;8543;54.522;18.550;2023-10-13T00:09:16;11.80;;;2.90;;
16854;SDS011;8543;54.522;18.550;2023-10-13T00:11:42;10.10;;;2.90;;
16854;SDS011;8543;54.522;18.550;2023-10-13T00:14:13;13.60;;;2.70;;
16854;SDS011;8543;54.522;18.550;2023-10-13T00:16:42;10.50;;;4.30;;
16854;SDS011;8543;54.522;18.550;2023-10-13T00:19:26;9.70;;;2.50;;
16854;SDS011;8543;54.522;18.550;2023-10-13T00:22:02;14.70;;;3.00;;
16854;SDS011;8543;54.522;18.550;2023-10-13T00:24:34;10.50;;;2.90;;
16854;SDS011;8543;54.522;18.550;2023-10-13T00:27:07;8.40;;;2.80;;
16854;SDS011;8543;54.522;18.550;2023-10-13T00:29:58;10.80;;;2.70;;
16854;SDS011;8543;54.522;18.550;2023-10-13T00:32:42;12.70;;;3.10;;
16854;SDS011;8543;54.522;18.550;2023-10-13T00:35:10;8.80;;;2.50;;
16854;SDS011;8543;54.522;18.550;2023-10-13T00:37:50;8.20;;;2.60;;
16854;SDS011;8543;54.522;18.550;2023-10-13T00:40:19;8.70;;;2.90;;
16854;SDS011;8543;54.522;18.550;2023-10-13T00:42:54;9.80;;;2.90;;
16854;SDS011;8543;54.522;18.550;2023-10-13T00:45:20;8.90;;;2.80;;
16854;SDS011;8543;54.522;18.550;2023-10-13T00:47:46;10.40;;;2.80;;
16854;SDS011;8543;54.522;18.550;2023-10-13T00:50:21;11.80;;;2.80;;
16854;SDS011;8543;54.522;18.550;2023-10-13T00:52:49;8.40;;;2.80;;
16854;SDS011;8543;54.522;18.550;2023-10-13T00:55:18;10.00;;;2.40;;
16854;SDS011;8543;54.522;18.550;2023-10-13T00:57:51;7.20;;;2.30;;
16854;SDS011;8543;54.522;18.550;2023-10-13T01:00:19;11.50;;;2.90;;
16854;SDS011;8543;54.522;18.550;2023-10-13T01:02:49;14.70;;;3.00;;
16854;SDS011;8543;54.522;18.550;2023-10-13T01:05:32;8.40;;;2.60;;
16854;SDS011;8543;54.522;18.550;2023-10-13T01:08:01;8.10;;;2.40;;
16854;SDS011;8543;54.522;18.550;2023-10-13T01:10:28;11.60;;;2.90;;
16854;SDS011;8543;54.522;18.550;2023-10-13T01:12:57;9.40;;;2.60;;
16854;SDS011;8543;54.522;18.550;2023-10-13T01:15:24;8.40;;;2.40;;
16854;SDS011;8543;54.522;18.550;2023-10-13T01:17:54;8.90;;;2.60;;
16854;SDS011;8543;54.522;18.550;2023-10-13T01:20:36;10.00;;;2.70;;
16854;SDS011;8543;54.522;18.550;2023-10-13T01:23:13;7.60;;;2.50;;
16854;SDS011;8543;54.522;18.550;2023-10-13T01:25:44;8.50;;;2.90;;
16854;SDS011;8543;54.522;18.550;2023-10-13T01:28:11;9.60;;;2.80;;
16854;SDS011;8543;54.522;18.550;2023-10-13T01:30:41;8.40;;;2.80;;
16854;SDS011;8543;54.522;18.550;2023-10-13T01:33:14;11.40;;;2.90;;
16854;SDS011;8543;54.522;18.550;2023-10-13T01:35:40;7.80;;;2.40;;
16854;SDS011;8543;54.522;18.550;2023-10-13T01:38:13;9.80;;;2.40;;
16854;SDS011;8543;54.522;18.550;2023-10-13T01:40:39;8.10;;;2.80;;
16854;SDS011;8543;54.522;18.550;2023-10-13T01:43:04;8.60;;;2.70;;
16854;SDS011;8543;54.522;18.550;2023-10-13T01:45:35;8.40;;;2.50;;
16854;SDS011;8543;54.522;18.550;2023-10-13T01:48:11;8.90;;;2.50;;
16854;SDS011;8543;54.522;18.550;2023-10-13T01:50:40;10.40;;;3.10;;
16854;SDS011;8543;54.522;18.550;2023-10-13T01:53:07;9.50;;;3.10;;
16854;SDS011;8543;54.522;18.550;2023-10-13T01:55:39;10.10;;;2.70;;
16854;SDS011;8543;54.522;18.550;2023-10-13T01:58:09;8.90;;;2.50;;
16854;SDS011;8543;54.522;18.550;2023-10-13T02:00:39;7.80;;;2.40;;
16854;SDS011;8543;54.522;18.550;2023-10-13T02:03:09;9.00;;;2.50;;
16854;SDS011;8543;54.522;18.550;2023-10-13T02:05:45;9.60;;;2.80;;
16854;SDS011;8543;54.522;18.550;2023-10-13T02:08:19;8.10;;;2.60;;
16854;SDS011;8543;54.522;18.550;2023-10-13T02:10:53;9.80;;;2.60;;
16854;SDS011;8543;54.522;18.550;2023-10-13T02:13:19;9.70;;;2.50;;
16854;SDS011;8543;54.522;18.550;2023-10-13T02:15:47;11.80;;;2.90;;
16854;SDS011;8543;54.522;18.550;2023-10-13T02:18:14;11.20;;;2.90;;
16854;SDS011;8543;54.522;18.550;2023-10-13T02:20:48;7.80;;;2.60;;
16854;SDS011;8543;54.522;18.550;2023-10-13T02:23:23;8.50;;;2.40;;
16854;SDS011;8543;54.522;18.550;2023-10-13T02:25:55;9.50;;;2.90;;
16854;SDS011;8543;54.522;18.550;2023-10-13T02:28:36;9.50;;;2.70;;
16854;SDS011;8543;54.522;18.550;2023-10-13T02:31:02;8.90;;;2.60;;
16854;SDS011;8543;54.522;18.550;2023-10-13T02:33:28;12.30;;;3.20;;
16854;SDS011;8543;54.522;18.550;2023-10-13T02:35:58;10.10;;;2.50;;
16854;SDS011;8543;54.522;18.550;2023-10-13T02:38:24;8.60;;;3.40;;
16854;SDS011;8543;54.522;18.550;2023-10-13T02:41:14;9.50;;;2.50;;
16854;SDS011;8543;54.522;18.550;2023-10-13T02:43:51;10.10;;;2.80;;
16854;SDS011;8543;54.522;18.550;2023-10-13T02:46:18;8.80;;;2.40;;
16854;SDS011;8543;54.522;18.550;2023-10-13T02:48:46;10.20;;;2.30;;
16854;SDS011;8543;54.522;18.550;2023-10-13T02:51:18;9.70;;;2.60;;
16854;SDS011;8543;54.522;18.550;2023-10-13T02:53:44;9.90;;;3.10;;
16854;SDS011;8543;54.522;18.550;2023-10-13T02:56:18;10.20;;;2.80;;
16854;SDS011;8543;54.522;18.550;2023-10-13T02:58:50;9.60;;;2.60;;
16854;SDS011;8543;54.522;18.550;2023-10-13T03:01:21;7.70;;;2.50;;
16854;SDS011;8543;54.522;18.550;2023-10-13T03:03:52;7.40;;;2.60;;
16854;SDS011;8543;54.522;18.550;2023-10-13T03:06:23;8.90;;;2.80;;
16854;SDS011;8543;54.522;18.550;2023-10-13T03:08:49;11.60;;;3.00;;
16854;SDS011;8543;54.522;18.550;2023-10-13T03:11:17;16.20;;;2.70;;
16854;SDS011;8543;54.522;18.550;2023-10-13T03:13:48;8.00;;;2.80;;
16854;SDS011;8543;54.522;18.550;2023-10-13T03:16:16;8.60;;;2.50;;
16854;SDS011;8543;54.522;18.550;2023-10-13T03:18:48;9.20;;;2.50;;
16854;SDS011;8543;54.522;18.550;2023-10-13T03:21:19;7.80;;;2.50;;
16854;SDS011;8543;54.522;18.550;2023-10-13T03:24:00;9.70;;;2.40;;
16854;SDS011;8543;54.522;18.550;2023-10-13T03:26:38;8.30;;;2.40;;
16854;SDS011;8543;54.522;18.550;2023-10-13T03:29:09;8.50;;;2.60;;
16854;SDS011;8543;54.522;18.550;2023-10-13T03:31:38;9.10;;;2.30;;
16854;SDS011;8543;54.522;18.550;2023-10-13T03:34:05;6.80;;;2.30;;
16854;SDS011;8543;54.522;18.550;2023-10-13T03:36:34;9.30;;;2.60;;
16854;SDS011;8543;54.522;18.550;2023-10-13T03:39:20;9.80;;;2.50;;
16854;SDS011;8543;54.522;18.550;2023-10-13T03:41:51;9.00;;;2.60;;
16854;SDS011;8543;54.522;18.550;2023-10-13T03:44:19;6.40;;;2.50;;
16854;SDS011;8543;54.522;18.550;2023-10-13T03:46:45;12.50;;;2.70;;
16854;SDS011;8543;54.522;18.550;2023-10-13T03:49:16;7.20;;;2.50;;
16854;SDS011;8543;54.522;18.550;2023-10-13T03:51:46;9.50;;;2.80;;
16854;SDS011;8543;54.522;18.550;2023-10-13T03:54:15;8.80;;;2.60;;
16854;SDS011;8543;54.522;18.550;2023-10-13T03:56:41;7.70;;;2.90;;
16854;SDS011;8543;54.522;18.550;2023-10-13T03:59:09;8.50;;;2.60;;
16854;SDS011;8543;54.522;18.550;2023-10-13T04:01:42;10.00;;;2.90;;
16854;SDS011;8543;54.522;18.550;2023-10-13T04:04:08;12.60;;;3.20;;
16854;SDS011;8543;54.522;18.550;2023-10-13T04:06:36;7.70;;;2.90;;
16854;SDS011;8543;54.522;18.550;2023-10-13T04:09:14;10.30;;;3.90;;
16854;SDS011;8543;54.522;18.550;2023-10-13T04:11:58;10.50;;;2.90;;
16854;SDS011;8543;54.522;18.550;2023-10-13T04:14:28;7.30;;;2.70;;
16854;SDS011;8543;54.522;18.550;2023-10-13T04:17:18;7.50;;;2.50;;
16854;SDS011;8543;54.522;18.550;2023-10-13T04:19:55;11.80;;;3.70;;
16854;SDS011;8543;54.522;18.550;2023-10-13T04:22:34;7.30;;;2.60;;
16854;SDS011;8543;54.522;18.550;2023-10-13T04:25:12;9.80;;;3.30;;
16854;SDS011;8543;54.522;18.550;2023-10-13T04:28:06;7.50;;;2.60;;
16854;SDS011;8543;54.522;18.550;2023-10-13T04:33:23;7.90;;;2.60;;
16854;SDS011;8543;54.522;18.550;2023-10-13T04:36:03;6.30;;;2.30;;
16854;SDS011;8543;54.522;18.550;2023-10-13T04:38:47;7.60;;;3.00;;
16854;SDS011;8543;54.522;18.550;2023-10-13T04:41:26;9.60;;;2.80;;
16854;SDS011;8543;54.522;18.550;2023-10-13T04:44:04;8.60;;;3.50;;
16854;SDS011;8543;54.522;18.550;2023-10-13T04:46:50;10.30;;;2.90;;
16854;SDS011;8543;54.522;18.550;2023-10-13T04:49:16;7.90;;;2.90;;
16854;SDS011;8543;54.522;18.550;2023-10-13T04:52:03;9.70;;;2.50;;
16854;SDS011;8543;54.522;18.550;2023-10-13T04:54:36;9.30;;;3.30;;
16854;SDS011;8543;54.522;18.550;2023-10-13T04:57:22;8.50;;;2.80;;
16854;SDS011;8543;54.522;18.550;2023-10-13T04:59:56;7.70;;;2.40;;
16854;SDS011;8543;54.522;18.550;2023-10-13T05:02:40;9.50;;;3.30;;
16854;SDS011;8543;54.522;18.550;2023-10-13T05:05:07;5.90;;;2.60;;
16854;SDS011;8543;54.522;18.550;2023-10-13T05:07:47;11.70;;;2.90;;
16854;SDS011;8543;54.522;18.550;2023-10-13T05:10:31;14.10;;;2.70;;
16854;SDS011;8543;54.522;18.550;2023-10-13T05:13:16;7.90;;;2.90;;
16854;SDS011;8543;54.522;18.550;2023-10-13T05:16:00;9.10;;;3.00;;
16854;SDS011;8543;54.522;18.550;2023-10-13T05:18:44;10.10;;;3.00;;
16854;SDS011;8543;54.522;18.550;2023-10-13T05:21:28;9.80;;;3.10;;
16854;SDS011;8543;54.522;18.550;2023-10-13T05:24:12;7.50;;;3.30;;
16854;SDS011;8543;54.522;18.550;2023-10-13T05:26:56;11.40;;;3.30;;
16854;SDS011;8543;54.522;18.550;2023-10-13T05:29:44;12.50;;;2.60;;
16854;SDS011;8543;54.522;18.550;2023-10-13T05:32:29;6.70;;;2.90;;
16854;SDS011;8543;54.522;18.550;2023-10-13T05:35:14;10.60;;;2.90;;
16854;SDS011;8543;54.522;18.550;2023-10-13T05:37:58;9.30;;;2.70;;
16854;SDS011;8543;54.522;18.550;2023-10-13T05:40:52;5.60;;;2.60;;
16854;SDS011;8543;54.522;18.550;2023-10-13T05:43:42;9.90;;;2.60;;
16854;SDS011;8543;54.522;18.550;2023-10-13T05:46:26;8.00;;;2.90;;
16854;SDS011;8543;54.522;18.550;2023-10-13T05:48:52;9.50;;;2.60;;
16854;SDS011;8543;54.522;18.550;2023-10-13T05:51:24;8.70;;;2.30;;
16854;SDS011;8543;54.522;18.550;2023-10-13T05:54:09;10.80;;;3.30;;
16854;SDS011;8543;54.522;18.550;2023-10-13T05:56:38;7.10;;;3.20;;
16854;SDS011;8543;54.522;18.550;2023-10-13T05:59:29;12.90;;;3.50;;
16854;SDS011;8543;54.522;18.550;2023-10-13T06:02:15;5.70;;;2.80;;
16854;SDS011;8543;54.522;18.550;2023-10-13T06:05:03;8.50;;;2.70;;
16854;SDS011;8543;54.522;18.550;2023-10-13T06:07:48;7.00;;;2.50;;
16854;SDS011;8543;54.522;18.550;2023-10-13T06:10:32;8.30;;;2.60;;
16854;SDS011;8543;54.522;18.550;2023-10-13T06:13:15;6.10;;;2.50;;
16854;SDS011;8543;54.522;18.550;2023-10-13T06:15:59;9.10;;;2.90;;
16854;SDS011;8543;54.522;18.550;2023-10-13T06:18:43;10.30;;;2.90;;
16854;SDS011;8543;54.522;18.550;2023-10-13T06:21:27;7.60;;;3.10;;
16854;SDS011;8543;54.522;18.550;2023-10-13T06:24:11;7.70;;;3.30;;
16854;SDS011;8543;54.522;18.550;2023-10-13T06:26:55;10.30;;;3.10;;
16854;SDS011;8543;54.522;18.550;2023-10-13T06:29:39;7.50;;;3.50;;
16854;SDS011;8543;54.522;18.550;2023-10-13T06:32:05;9.70;;;3.60;;
16854;SDS011;8543;54.522;18.550;2023-10-13T06:34:36;8.10;;;3.30;;
16854;SDS011;8543;54.522;18.550;2023-10-13T06:37:14;8.60;;;3.50;;
16854;SDS011;8543;54.522;18.550;2023-10-13T06:39:51;8.20;;;3.80;;
16854;SDS011;8543;54.522;18.550;2023-10-13T06:42:18;7.10;;;4.10;;
16854;SDS011;8543;54.522;18.550;2023-10-13T06:44:46;6.80;;;3.40;;
16854;SDS011;8543;54.522;18.550;2023-10-13T06:47:12;7.90;;;3.90;;
16854;SDS011;8543;54.522;18.550;2023-10-13T06:49:41;10.20;;;4.20;;
16854;SDS011;8543;54.522;18.550;2023-10-13T06:52:09;8.20;;;3.60;;
16854;SDS011;8543;54.522;18.550;2023-10-13T06:54:35;7.40;;;3.70;;
16854;SDS011;8543;54.522;18.550;2023-10-13T06:57:03;10.60;;;4.00;;
16854;SDS011;8543;54.522;18.550;2023-10-13T06:59:31;10.90;;;3.70;;
16854;SDS011;8543;54.522;18.550;2023-10-13T07:02:00;7.10;;;4.00;;
16854;SDS011;8543;54.522;18.550;2023-10-13T07:04:34;7.90;;;4.00;;
16854;SDS011;8543;54.522;18.550;2023-10-13T07:07:04;8.70;;;3.60;;
16854;SDS011;8543;54.522;18.550;2023-10-13T07:09:31;7.10;;;3.70;;
16854;SDS011;8543;54.522;18.550;2023-10-13T07:12:00;7.10;;;3.40;;
16854;SDS011;8543;54.522;18.550;2023-10-13T07:14:27;7.90;;;3.50;;
16854;SDS011;8543;54.522;18.550;2023-10-13T07:16:56;7.20;;;3.90;;
16854;SDS011;8543;54.522;18.550;2023-10-13T07:19:26;6.60;;;3.20;;
16854;SDS011;8543;54.522;18.550;2023-10-13T07:21:55;7.80;;;3.70;;
16854;SDS011;8543;54.522;18.550;2023-10-13T07:24:27;8.50;;;3.70;;
16854;SDS011;8543;54.522;18.550;2023-10-13T07:26:56;6.80;;;3.40;;
16854;SDS011;8543;54.522;18.550;2023-10-13T07:29:31;6.10;;;3.40;;
16854;SDS011;8543;54.522;18.550;2023-10-13T07:32:00;7.00;;;3.20;;
16854;SDS011;8543;54.522;18.550;2023-10-13T07:37:04;6.80;;;3.50;;
16854;SDS011;8543;54.522;18.550;2023-10-13T07:39:33;8.50;;;3.60;;
16854;SDS011;8543;54.522;18.550;2023-10-13T07:42:04;7.40;;;4.20;;
16854;SDS011;8543;54.522;18.550;2023-10-13T07:44:31;9.60;;;3.90;;
16854;SDS011;8543;54.522;18.550;2023-10-13T07:46:58;8.10;;;3.90;;
16854;SDS011;8543;54.522;18.550;2023-10-13T07:49:36;7.00;;;3.60;;
16854;SDS011;8543;54.522;18.550;2023-10-13T07:52:04;8.60;;;3.80;;
16854;SDS011;8543;54.522;18.550;2023-10-13T07:55:00;7.30;;;3.20;;
16854;SDS011;8543;54.522;18.550;2023-10-13T07:57:39;7.20;;;3.30;;
16854;SDS011;8543;54.522;18.550;2023-10-13T08:00:20;6.60;;;2.90;;
16854;SDS011;8543;54.522;18.550;2023-10-13T08:03:05;9.00;;;3.30;;
16854;SDS011;8543;54.522;18.550;2023-10-13T08:05:52;8.10;;;3.20;;
16854;SDS011;8543;54.522;18.550;2023-10-13T08:08:31;7.40;;;3.20;;
16854;SDS011;8543;54.522;18.550;2023-10-13T08:11:06;11.70;;;4.10;;
16854;SDS011;8543;54.522;18.550;2023-10-13T08:16:22;9.80;;;4.20;;
16854;SDS011;8543;54.522;18.550;2023-10-13T08:18:51;11.90;;;5.00;;
16854;SDS011;8543;54.522;18.550;2023-10-13T08:21:18;11.40;;;4.60;;
16854;SDS011;8543;54.522;18.550;2023-10-13T08:23:50;10.50;;;5.00;;
16854;SDS011;8543;54.522;18.550;2023-10-13T08:26:19;13.70;;;4.30;;
16854;SDS011;8543;54.522;18.550;2023-10-13T08:29:00;10.20;;;3.20;;
16854;SDS011;8543;54.522;18.550;2023-10-13T08:31:44;7.80;;;2.80;;
16854;SDS011;8543;54.522;18.550;2023-10-13T08:34:39;11.60;;;3.10;;
16854;SDS011;8543;54.522;18.550;2023-10-13T08:37:25;7.60;;;3.10;;
16854;SDS011;8543;54.522;18.550;2023-10-13T08:39:52;9.40;;;3.70;;
16854;SDS011;8543;54.522;18.550;2023-10-13T08:42:36;8.00;;;2.70;;
16854;SDS011;8543;54.522;18.550;2023-10-13T08:45:06;7.60;;;2.70;;
16854;SDS011;8543;54.522;18.550;2023-10-13T08:47:55;5.70;;;2.60;;
16854;SDS011;8543;54.522;18.550;2023-10-13T08:56:01;8.50;;;2.90;;
16854;SDS011;8543;54.522;18.550;2023-10-13T08:58:36;8.20;;;2.80;;
16854;SDS011;8543;54.522;18.550;2023-10-13T09:04:25;6.30;;;2.60;;
16854;SDS011;8543;54.522;18.550;2023-10-13T09:06:57;6.70;;;2.90;;
16854;SDS011;8543;54.522;18.550;2023-10-13T09:12:23;11.10;;;4.10;;
16854;SDS011;8543;54.522;18.550;2023-10-13T09:15:02;7.50;;;3.70;;
16854;SDS011;8543;54.522;18.550;2023-10-13T09:17:40;11.40;;;3.70;;
16854;SDS011;8543;54.522;18.550;2023-10-13T09:20:17;9.70;;;3.30;;
16854;SDS011;8543;54.522;18.550;2023-10-13T09:22:49;6.80;;;2.60;;
16854;SDS011;8543;54.522;18.550;2023-10-13T09:25:32;5.70;;;2.30;;
16854;SDS011;8543;54.522;18.550;2023-10-13T09:28:03;8.30;;;2.30;;
16854;SDS011;8543;54.522;18.550;2023-10-13T09:33:12;9.00;;;2.30;;
16854;SDS011;8543;54.522;18.550;2023-10-13T09:35:44;8.10;;;2.40;;
16854;SDS011;8543;54.522;18.550;2023-10-13T09:38:16;6.60;;;2.00;;
16854;SDS011;8543;54.522;18.550;2023-10-13T09:40:43;7.10;;;3.00;;
16854;SDS011;8543;54.522;18.550;2023-10-13T09:43:15;8.30;;;2.70;;
16854;SDS011;8543;54.522;18.550;2023-10-13T09:45:47;7.20;;;2.40;;
16854;SDS011;8543;54.522;18.550;2023-10-13T09:48:33;6.30;;;2.40;;
16854;SDS011;8543;54.522;18.550;2023-10-13T09:51:01;6.10;;;2.20;;
16854;SDS011;8543;54.522;18.550;2023-10-13T09:53:34;7.10;;;2.30;;
16854;SDS011;8543;54.522;18.550;2023-10-13T09:56:08;6.90;;;2.60;;
16854;SDS011;8543;54.522;18.550;2023-10-13T09:58:49;7.40;;;2.80;;
16854;SDS011;8543;54.522;18.550;2023-10-13T10:01:19;7.20;;;2.90;;
16854;SDS011;8543;54.522;18.550;2023-10-13T10:04:06;7.30;;;2.50;;
16854;SDS011;8543;54.522;18.550;2023-10-13T10:06:33;5.80;;;2.40;;
16854;SDS011;8543;54.522;18.550;2023-10-13T10:09:06;11.50;;;2.70;;
16854;SDS011;8543;54.522;18.550;2023-10-13T10:17:05;8.20;;;3.50;;
16854;SDS011;8543;54.522;18.550;2023-10-13T10:19:50;8.70;;;3.40;;
16854;SDS011;8543;54.522;18.550;2023-10-13T10:25:02;5.80;;;2.90;;
16854;SDS011;8543;54.522;18.550;2023-10-13T10:27:29;9.10;;;3.70;;
16854;SDS011;8543;54.522;18.550;2023-10-13T10:29:56;8.40;;;3.50;;
16854;SDS011;8543;54.522;18.550;2023-10-13T10:32:31;9.90;;;3.30;;
16854;SDS011;8543;54.522;18.550;2023-10-13T10:35:07;11.10;;;3.90;;
16854;SDS011;8543;54.522;18.550;2023-10-13T10:37:39;8.70;;;3.80;;
16854;SDS011;8543;54.522;18.550;2023-10-13T10:40:12;9.20;;;2.60;;
16854;SDS011;8543;54.522;18.550;2023-10-13T10:42:58;10.80;;;2.70;;
16854;SDS011;8543;54.522;18.550;2023-10-13T10:45:26;8.40;;;2.40;;
16854;SDS011;8543;54.522;18.550;2023-10-13T10:47:59;7.10;;;2.60;;
16854;SDS011;8543;54.522;18.550;2023-10-13T10:50:25;8.90;;;2.70;;
16854;SDS011;8543;54.522;18.550;2023-10-13T10:53:00;5.80;;;2.20;;
16854;SDS011;8543;54.522;18.550;2023-10-13T10:55:33;6.90;;;2.10;;
16854;SDS011;8543;54.522;18.550;2023-10-13T10:58:01;4.30;;;1.90;;
16854;SDS011;8543;54.522;18.550;2023-10-13T11:00:30;7.70;;;3.10;;
16854;SDS011;8543;54.522;18.550;2023-10-13T11:03:10;6.20;;;2.10;;
16854;SDS011;8543;54.522;18.550;2023-10-13T11:05:43;6.50;;;2.30;;
16854;SDS011;8543;54.522;18.550;2023-10-13T11:08:24;7.40;;;2.00;;
16854;SDS011;8543;54.522;18.550;2023-10-13T11:11:09;7.30;;;2.60;;
16854;SDS011;8543;54.522;18.550;2023-10-13T11:13:43;5.00;;;2.10;;
16854;SDS011;8543;54.522;18.550;2023-10-13T11:19:09;6.00;;;2.30;;
16854;SDS011;8543;54.522;18.550;2023-10-13T11:21:36;5.80;;;3.00;;
16854;SDS011;8543;54.522;18.550;2023-10-13T11:24:02;8.20;;;2.80;;
16854;SDS011;8543;54.522;18.550;2023-10-13T11:26:37;7.80;;;2.80;;
16854;SDS011;8543;54.522;18.550;2023-10-13T11:29:14;5.60;;;2.20;;
16854;SDS011;8543;54.522;18.550;2023-10-13T11:31:46;6.10;;;2.40;;
16854;SDS011;8543;54.522;18.550;2023-10-13T11:34:18;5.20;;;2.10;;
16854;SDS011;8543;54.522;18.550;2023-10-13T11:36:44;6.50;;;2.40;;
16854;SDS011;8543;54.522;18.550;2023-10-13T11:39:09;7.10;;;2.50;;
16854;SDS011;8543;54.522;18.550;2023-10-13T11:41:42;7.40;;;2.70;;
16854;SDS011;8543;54.522;18.550;2023-10-13T11:44:15;9.60;;;3.20;;
16854;SDS011;8543;54.522;18.550;2023-10-13T11:46:44;7.70;;;3.20;;
16854;SDS011;8543;54.522;18.550;2023-10-13T11:49:09;7.30;;;3.10;;
16854;SDS011;8543;54.522;18.550;2023-10-13T11:51:42;7.30;;;3.10;;
16854;SDS011;8543;54.522;18.550;2023-10-13T11:54:19;7.40;;;2.90;;
16854;SDS011;8543;54.522;18.550;2023-10-13T11:56:47;9.00;;;3.40;;
16854;SDS011;8543;54.522;18.550;2023-10-13T11:59:13;7.70;;;3.00;;
16854;SDS011;8543;54.522;18.550;2023-10-13T12:01:50;9.10;;;3.20;;
16854;SDS011;8543;54.522;18.550;2023-10-13T12:04:34;6.90;;;3.30;;
16854;SDS011;8543;54.522;18.550;2023-10-13T12:07:14;7.00;;;2.90;;
16854;SDS011;8543;54.522;18.550;2023-10-13T12:09:42;6.70;;;3.20;;
16854;SDS011;8543;54.522;18.550;2023-10-13T12:12:23;7.20;;;3.30;;
16854;SDS011;8543;54.522;18.550;2023-10-13T12:14:49;7.60;;;3.10;;
16854;SDS011;8543;54.522;18.550;2023-10-13T12:17:27;8.90;;;3.50;;
16854;SDS011;8543;54.522;18.550;2023-10-13T12:19:57;10.50;;;3.40;;
16854;SDS011;8543;54.522;18.550;2023-10-13T12:22:24;7.80;;;3.50;;
16854;SDS011;8543;54.522;18.550;2023-10-13T12:25:12;6.30;;;3.40;;
16854;SDS011;8543;54.522;18.550;2023-10-13T12:27:50;8.10;;;3.80;;
16854;SDS011;8543;54.522;18.550;2023-10-13T12:30:21;8.70;;;3.50;;
16854;SDS011;8543;54.522;18.550;2023-10-13T12:33:13;11.30;;;3.90;;
16854;SDS011;8543;54.522;18.550;2023-10-13T12:35:41;8.30;;;3.90;;
16854;SDS011;8543;54.522;18.550;2023-10-13T12:38:23;8.70;;;3.80;;
16854;SDS011;8543;54.522;18.550;2023-10-13T12:41:04;10.20;;;3.90;;
16854;SDS011;8543;54.522;18.550;2023-10-13T12:43:48;10.10;;;4.90;;
16854;SDS011;8543;54.522;18.550;2023-10-13T12:46:36;10.70;;;4.70;;
16854;SDS011;8543;54.522;18.550;2023-10-13T12:49:20;9.10;;;5.00;;
16854;SDS011;8543;54.522;18.550;2023-10-13T12:52:04;10.20;;;4.80;;
16854;SDS011;8543;54.522;18.550;2023-10-13T12:54:40;9.60;;;4.80;;
16854;SDS011;8543;54.522;18.550;2023-10-13T12:57:30;9.10;;;5.50;;
16854;SDS011;8543;54.522;18.550;2023-10-13T12:59:57;11.00;;;5.60;;
16854;SDS011;8543;54.522;18.550;2023-10-13T13:02:23;11.50;;;5.50;;
16854;SDS011;8543;54.522;18.550;2023-10-13T13:04:50;13.10;;;6.30;;
16854;SDS011;8543;54.522;18.550;2023-10-13T13:07:31;12.50;;;6.20;;
16854;SDS011;8543;54.522;18.550;2023-10-13T13:10:08;12.80;;;6.50;;
16854;SDS011;8543;54.522;18.550;2023-10-13T13:12:34;11.30;;;6.20;;
16854;SDS011;8543;54.522;18.550;2023-10-13T13:14:59;11.50;;;6.10;;
16854;SDS011;8543;54.522;18.550;2023-10-13T13:17:25;9.70;;;5.80;;
16854;SDS011;8543;54.522;18.550;2023-10-13T13:19:50;13.80;;;6.70;;
16854;SDS011;8543;54.522;18.550;2023-10-13T13:22:16;11.70;;;6.40;;
16854;SDS011;8543;54.522;18.550;2023-10-13T13:24:43;13.00;;;7.40;;
16854;SDS011;8543;54.522;18.550;2023-10-13T13:27:12;11.70;;;6.60;;
16854;SDS011;8543;54.522;18.550;2023-10-13T13:29:42;10.10;;;5.80;;
16854;SDS011;8543;54.522;18.550;2023-10-13T13:32:07;12.90;;;7.10;;
16854;SDS011;8543;54.522;18.550;2023-10-13T13:34:53;14.80;;;8.10;;
16854;SDS011;8543;54.522;18.550;2023-10-13T13:37:38;16.60;;;7.40;;
16854;SDS011;8543;54.522;18.550;2023-10-13T13:40:04;12.40;;;7.60;;
16854;SDS011;8543;54.522;18.550;2023-10-13T13:42:47;13.10;;;7.30;;
16854;SDS011;8543;54.522;18.550;2023-10-13T13:45:16;15.10;;;7.70;;
16854;SDS011;8543;54.522;18.550;2023-10-13T13:47:54;13.80;;;8.10;;
16854;SDS011;8543;54.522;18.550;2023-10-13T13:50:24;15.40;;;7.80;;
16854;SDS011;8543;54.522;18.550;2023-10-13T13:52:55;16.80;;;9.00;;
16854;SDS011;8543;54.522;18.550;2023-10-13T13:55:24;15.70;;;9.40;;
16854;SDS011;8543;54.522;18.550;2023-10-13T13:57:55;12.00;;;8.10;;
16854;SDS011;8543;54.522;18.550;2023-10-13T14:00:21;14.30;;;8.70;;
16854;SDS011;8543;54.522;18.550;2023-10-13T14:03:13;15.80;;;9.20;;
16854;SDS011;8543;54.522;18.550;2023-10-13T14:05:59;11.70;;;8.20;;
16854;SDS011;8543;54.522;18.550;2023-10-13T14:08:25;17.60;;;9.50;;
16854;SDS011;8543;54.522;18.550;2023-10-13T14:10:52;15.40;;;10.80;;
16854;SDS011;8543;54.522;18.550;2023-10-13T14:13:37;16.10;;;10.60;;
16854;SDS011;8543;54.522;18.550;2023-10-13T14:16:19;17.00;;;9.40;;
16854;SDS011;8543;54.522;18.550;2023-10-13T14:18:54;17.10;;;10.20;;
16854;SDS011;8543;54.522;18.550;2023-10-13T14:21:19;14.30;;;8.80;;
16854;SDS011;8543;54.522;18.550;2023-10-13T14:23:49;16.40;;;9.60;;
16854;SDS011;8543;54.522;18.550;2023-10-13T14:26:16;16.30;;;8.90;;
16854;SDS011;8543;54.522;18.550;2023-10-13T14:28:49;16.60;;;10.50;;
16854;SDS011;8543;54.522;18.550;2023-10-13T14:31:25;14.70;;;9.30;;
16854;SDS011;8543;54.522;18.550;2023-10-13T14:33:51;17.30;;;11.00;;
16854;SDS011;8543;54.522;18.550;2023-10-13T14:36:16;15.30;;;10.50;;
16854;SDS011;8543;54.522;18.550;2023-10-13T14:38:45;18.40;;;10.80;;
16854;SDS011;8543;54.522;18.550;2023-10-13T14:41:16;15.10;;;10.30;;
16854;SDS011;8543;54.522;18.550;2023-10-13T14:43:42;17.50;;;10.80;;
16854;SDS011;8543;54.522;18.550;2023-10-13T14:46:13;17.90;;;11.30;;
16854;SDS011;8543;54.522;18.550;2023-10-13T14:48:42;14.00;;;9.20;;
16854;SDS011;8543;54.522;18.550;2023-10-13T14:51:11;15.10;;;10.80;;
16854;SDS011;8543;54.522;18.550;2023-10-13T14:53:41;17.00;;;11.00;;
16854;SDS011;8543;54.522;18.550;2023-10-13T14:56:17;18.40;;;11.00;;
16854;SDS011;8543;54.522;18.550;2023-10-13T14:58:43;18.20;;;11.40;;
16854;SDS011;8543;54.522;18.550;2023-10-13T15:01:12;18.20;;;12.30;;
16854;SDS011;8543;54.522;18.550;2023-10-13T15:03:44;18.30;;;11.70;;
16854;SDS011;8543;54.522;18.550;2023-10-13T15:06:15;16.60;;;11.60;;
16854;SDS011;8543;54.522;18.550;2023-10-13T15:08:43;18.40;;;12.00;;
16854;SDS011;8543;54.522;18.550;2023-10-13T15:11:12;18.60;;;10.80;;
16854;SDS011;8543;54.522;18.550;2023-10-13T15:13:38;12.90;;;10.50;;
16854;SDS011;8543;54.522;18.550;2023-10-13T15:16:19;16.40;;;11.40;;
16854;SDS011;8543;54.522;18.550;2023-10-13T15:18:46;16.70;;;11.30;;
16854;SDS011;8543;54.522;18.550;2023-10-13T15:21:22;17.40;;;11.30;;
16854;SDS011;8543;54.522;18.550;2023-10-13T15:23:53;16.20;;;10.80;;
16854;SDS011;8543;54.522;18.550;2023-10-13T15:26:24;15.80;;;11.70;;
16854;SDS011;8543;54.522;18.550;2023-10-13T15:28:50;15.50;;;10.90;;
16854;SDS011;8543;54.522;18.550;2023-10-13T15:31:21;13.40;;;10.20;;
16854;SDS011;8543;54.522;18.550;2023-10-13T15:33:59;15.60;;;11.70;;
16854;SDS011;8543;54.522;18.550;2023-10-13T15:36:42;14.90;;;10.20;;
16854;SDS011;8543;54.522;18.550;2023-10-13T15:39:09;13.30;;;10.60;;
16854;SDS011;8543;54.522;18.550;2023-10-13T15:41:35;14.10;;;11.00;;
16854;SDS011;8543;54.522;18.550;2023-10-13T15:44:04;13.70;;;10.40;;
16854;SDS011;8543;54.522;18.550;2023-10-13T15:46:34;14.70;;;9.30;;
16854;SDS011;8543;54.522;18.550;2023-10-13T15:49:00;14.90;;;11.00;;
16854;SDS011;8543;54.522;18.550;2023-10-13T15:51:27;16.20;;;10.30;;
16854;SDS011;8543;54.522;18.550;2023-10-13T15:53:53;12.70;;;9.00;;